Time;durP1;ratioP1;P1;durP2;ratioP2;P2;SDS_P1;SDS_P2;PMS_P1;PMS_P2;Temp;Humidity;BMP_temperature;BMP_pressure;BME280_temperature;BME280_humidity;BME280_pressure;Samples;Min_cycle;Max_cycle;Signal;HPM_P1;HPM_P2
2021/01/04 00:00:18;;;;;;;13.70;9.33;;;3.70;91.80;;;;;;4380809;32;20402;-63
2021/01/04 00:03:07;;;;;;;16.47;9.87;;;3.70;91.60;;;;;;4384056;32;20286;-65
2021/01/04 00:05:47;;;;;;;17.10;10.30;;;3.60;91.80;;;;;;4383857;32;20181;-65
2021/01/04 00:08:44;;;;;;;15.07;10.03;;;3.60;91.80;;;;;;4385815;32;20204;-63
2021/01/04 00:11:36;;;;;;;20.03;10.77;;;3.60;91.80;;;;;;4380706;32;20237;-64
2021/01/04 00:14:22;;;;;;;18.27;9.90;;;3.60;91.90;;;;;;4403427;32;20290;-63
2021/01/04 00:17:01;;;;;;;15.50;9.67;;;3.60;91.90;;;;;;4392280;32;20570;-66
2021/01/04 00:19:36;;;;;;;15.30;9.90;;;3.60;91.90;;;;;;4394443;32;20242;-63
2021/01/04 00:22:12;;;;;;;16.27;10.20;;;3.60;92.20;;;;;;4400459;32;20171;-63
2021/01/04 00:24:47;;;;;;;18.23;9.97;;;3.60;91.90;;;;;;4402188;32;20899;-63
2021/01/04 00:27:27;;;;;;;15.40;9.80;;;3.70;91.90;;;;;;4401016;32;20184;-63
2021/01/04 00:30:02;;;;;;;14.60;9.80;;;3.70;92.00;;;;;;4401654;32;20208;-63
2021/01/04 00:32:34;;;;;;;15.33;10.17;;;3.70;91.80;;;;;;4398870;32;20188;-63
2021/01/04 00:35:07;;;;;;;17.07;10.53;;;3.70;91.80;;;;;;4402100;32;20185;-63
2021/01/04 00:38:01;;;;;;;16.37;9.63;;;3.70;91.90;;;;;;4402215;32;20169;-65
2021/01/04 00:40:35;;;;;;;17.47;10.30;;;3.70;91.70;;;;;;4401648;32;20199;-63
2021/01/04 00:43:08;;;;;;;18.03;9.60;;;3.70;91.90;;;;;;4400066;32;20640;-62
2021/01/04 00:45:44;;;;;;;14.33;9.63;;;3.70;91.90;;;;;;4396649;32;20159;-64
2021/01/04 00:48:16;;;;;;;14.97;10.13;;;3.80;91.80;;;;;;4395990;32;20198;-63
2021/01/04 00:51:04;;;;;;;14.70;9.67;;;3.70;91.80;;;;;;4401401;32;20585;-66
2021/01/04 00:53:36;;;;;;;14.97;9.60;;;3.60;91.80;;;;;;4389527;32;20220;-63
2021/01/04 00:56:32;;;;;;;13.63;9.20;;;3.60;91.80;;;;;;4396345;32;20191;-64
2021/01/04 00:59:11;;;;;;;15.40;9.10;;;3.60;91.80;;;;;;4403282;32;20210;-63
2021/01/04 01:01:55;;;;;;;14.43;10.13;;;3.60;91.90;;;;;;4399159;32;20207;-69
2021/01/04 01:04:31;;;;;;;14.67;9.67;;;3.60;92.00;;;;;;4395569;32;20588;-66
2021/01/04 01:07:03;;;;;;;15.73;9.67;;;3.70;91.90;;;;;;4393799;32;20215;-65
2021/01/04 01:09:34;;;;;;;14.10;9.17;;;3.60;91.90;;;;;;4399664;32;20152;-64
2021/01/04 01:12:15;;;;;;;12.13;9.07;;;3.70;91.90;;;;;;4401466;32;20511;-64
2021/01/04 01:14:45;;;;;;;14.43;10.23;;;3.60;92.00;;;;;;4400594;32;20207;-66
2021/01/04 01:17:47;;;;;;;16.60;10.77;;;3.60;92.00;;;;;;4404889;32;20211;-63
2021/01/04 01:20:17;;;;;;;15.03;9.43;;;3.60;91.90;;;;;;4396540;32;20259;-65
2021/01/04 01:22:46;;;;;;;14.00;9.93;;;3.60;92.10;;;;;;4401562;32;20155;-64
2021/01/04 01:25:16;;;;;;;18.10;9.97;;;3.60;92.20;;;;;;4403918;32;20172;-63
2021/01/04 01:28:32;;;;;;;21.87;10.67;;;3.60;92.10;;;;;;4398947;32;20178;-66
2021/01/04 01:31:22;;;;;;;17.47;10.33;;;3.60;92.30;;;;;;4399255;32;20288;-63
2021/01/04 01:34:23;;;;;;;17.27;9.97;;;3.60;92.40;;;;;;4397668;32;20208;-64
2021/01/04 01:37:24;;;;;;;15.10;10.83;;;3.60;92.30;;;;;;4401201;32;20198;-64
2021/01/04 01:40:15;;;;;;;14.17;9.87;;;3.60;92.30;;;;;;4397689;32;20251;-66
2021/01/04 01:43:19;;;;;;;16.47;10.40;;;3.60;92.30;;;;;;4403077;32;20187;-65
2021/01/04 01:45:54;;;;;;;14.17;9.83;;;3.50;92.30;;;;;;4400122;32;20168;-64
2021/01/04 01:48:36;;;;;;;17.43;10.37;;;3.50;92.50;;;;;;4403297;32;20248;-65
2021/01/04 01:51:06;;;;;;;17.00;10.37;;;3.60;92.50;;;;;;4395625;32;20160;-65
2021/01/04 01:53:49;;;;;;;14.27;9.53;;;3.50;92.50;;;;;;4399344;32;20628;-65
2021/01/04 01:56:23;;;;;;;13.77;9.63;;;3.50;92.40;;;;;;4394953;32;20216;-64
2021/01/04 01:59:05;;;;;;;14.63;9.80;;;3.50;92.40;;;;;;4401394;32;20180;-65
2021/01/04 02:01:43;;;;;;;15.13;10.93;;;3.60;92.50;;;;;;4396721;32;20178;-65
2021/01/04 02:04:20;;;;;;;17.37;10.57;;;3.50;92.40;;;;;;4398129;32;20163;-63
2021/01/04 02:07:14;;;;;;;14.77;9.57;;;3.50;92.60;;;;;;4391578;32;20183;-65
2021/01/04 02:09:50;;;;;;;16.33;10.40;;;3.50;92.60;;;;;;4403222;32;20159;-66
2021/01/04 02:12:31;;;;;;;14.60;9.30;;;3.50;92.40;;;;;;4396649;32;20214;-64
2021/01/04 02:15:01;;;;;;;16.03;10.20;;;3.50;92.50;;;;;;4402590;32;20254;-67
2021/01/04 02:18:01;;;;;;;16.53;11.37;;;3.50;92.70;;;;;;4391156;32;20184;-63
2021/01/04 02:21:01;;;;;;;16.23;10.43;;;3.60;92.80;;;;;;4376717;32;20577;-62
2021/01/04 02:23:43;;;;;;;14.67;10.30;;;3.50;92.70;;;;;;4381145;32;20282;-64
2021/01/04 02:26:16;;;;;;;15.53;10.40;;;3.40;92.80;;;;;;4379885;32;20395;-65
2021/01/04 02:29:00;;;;;;;14.63;10.23;;;3.50;92.90;;;;;;4384872;32;20617;-63
2021/01/04 02:31:29;;;;;;;14.50;10.47;;;3.40;92.90;;;;;;4374946;32;20211;-63
2021/01/04 02:33:56;;;;;;;16.50;10.47;;;3.40;93.00;;;;;;4373100;32;20163;-65
2021/01/04 02:36:25;;;;;;;13.70;10.23;;;3.40;92.90;;;;;;4374940;32;20664;-65
2021/01/04 02:39:03;;;;;;;15.13;10.40;;;3.40;93.00;;;;;;4385962;32;20192;-63
2021/01/04 02:41:57;;;;;;;14.13;10.13;;;3.40;93.00;;;;;;4375450;32;20202;-64
2021/01/04 02:44:26;;;;;;;16.50;11.00;;;3.50;93.00;;;;;;4383079;32;20752;-64
2021/01/04 02:47:23;;;;;;;15.40;10.07;;;3.50;92.90;;;;;;4388267;32;20585;-64
2021/01/04 02:50:00;;;;;;;14.83;9.27;;;3.50;93.00;;;;;;4379996;32;20220;-65
2021/01/04 02:52:39;;;;;;;14.97;10.23;;;3.50;93.00;;;;;;4387586;32;20183;-65
2021/01/04 02:55:14;;;;;;;14.47;10.57;;;3.50;93.00;;;;;;4378904;32;20180;-64
2021/01/04 02:57:53;;;;;;;15.30;10.13;;;3.50;93.10;;;;;;4399820;32;20144;-62
2021/01/04 03:00:24;;;;;;;15.57;9.23;;;3.50;93.10;;;;;;4401768;32;20202;-66
2021/01/04 03:03:01;;;;;;;17.00;11.17;;;3.50;93.00;;;;;;4405755;32;20217;-61
2021/01/04 03:05:29;;;;;;;13.23;9.73;;;3.50;93.00;;;;;;4399916;32;20486;-63
2021/01/04 03:07:58;;;;;;;15.93;10.30;;;3.50;93.10;;;;;;4404773;32;20172;-64
2021/01/04 03:10:29;;;;;;;15.43;10.07;;;3.40;93.30;;;;;;4400534;32;20562;-65
2021/01/04 03:13:16;;;;;;;13.73;10.10;;;3.50;93.30;;;;;;4405181;32;21148;-65
2021/01/04 03:15:58;;;;;;;15.00;10.17;;;3.50;93.30;;;;;;4404784;32;20520;-64
2021/01/04 03:18:37;;;;;;;17.53;11.27;;;3.40;93.30;;;;;;4402858;32;20190;-63
2021/01/04 03:21:08;;;;;;;16.80;10.53;;;3.40;93.20;;;;;;4393813;32;20156;-67
2021/01/04 03:23:35;;;;;;;13.70;10.10;;;3.50;93.20;;;;;;4401206;32;20194;-66
2021/01/04 03:26:07;;;;;;;14.43;10.93;;;3.50;93.20;;;;;;4401936;32;20600;-64
2021/01/04 03:28:36;;;;;;;15.63;10.67;;;3.50;93.20;;;;;;4404738;32;20183;-66
2021/01/04 03:31:05;;;;;;;15.37;11.07;;;3.50;93.30;;;;;;4393622;32;20180;-66
2021/01/04 03:33:37;;;;;;;13.97;10.10;;;3.40;93.20;;;;;;4402183;32;20156;-66
2021/01/04 03:36:06;;;;;;;19.07;11.13;;;3.50;93.30;;;;;;4394453;32;20219;-65
2021/01/04 03:38:37;;;;;;;17.30;11.27;;;3.50;93.30;;;;;;4393046;32;20252;-66
2021/01/04 03:41:05;;;;;;;15.53;10.23;;;3.50;93.30;;;;;;4397647;32;20152;-64
2021/01/04 03:43:32;;;;;;;16.23;11.63;;;3.50;93.20;;;;;;4401499;32;20495;-65
2021/01/04 03:46:01;;;;;;;16.50;11.17;;;3.50;93.10;;;;;;4396210;32;22126;-63
2021/01/04 03:48:30;;;;;;;15.70;11.13;;;3.50;93.20;;;;;;4401259;32;20211;-65
2021/01/04 03:51:02;;;;;;;18.47;12.40;;;3.50;93.20;;;;;;4404299;32;20222;-64
2021/01/04 03:53:41;;;;;;;15.73;11.00;;;3.40;93.20;;;;;;4404634;32;20216;-64
2021/01/04 03:56:07;;;;;;;17.50;11.90;;;3.50;93.20;;;;;;4399648;32;20282;-63
2021/01/04 03:58:36;;;;;;;16.70;12.30;;;3.40;93.20;;;;;;4401531;32;20168;-67
2021/01/04 04:01:11;;;;;;;16.00;11.53;;;3.40;93.20;;;;;;4397241;32;20223;-64
2021/01/04 04:03:43;;;;;;;17.63;10.67;;;3.40;93.20;;;;;;4397785;32;20637;-64
2021/01/04 04:06:13;;;;;;;13.80;10.37;;;3.40;93.30;;;;;;4403601;32;20607;-63
2021/01/04 04:08:46;;;;;;;16.50;10.73;;;3.50;93.20;;;;;;4405106;32;20286;-64
2021/01/04 04:11:19;;;;;;;16.03;10.33;;;3.50;93.30;;;;;;4402678;32;20195;-67
2021/01/04 04:13:47;;;;;;;12.73;10.17;;;3.50;93.30;;;;;;4399727;32;20207;-64
2021/01/04 04:16:28;;;;;;;13.20;9.80;;;3.60;93.20;;;;;;4402481;32;20219;-64
2021/01/04 04:18:57;;;;;;;14.43;10.10;;;3.50;93.00;;;;;;4406008;32;20219;-64
2021/01/04 04:21:23;;;;;;;12.67;10.10;;;3.50;93.00;;;;;;4403210;32;20176;-63
2021/01/04 04:23:52;;;;;;;15.90;9.50;;;3.50;93.00;;;;;;4397140;32;20172;-64
2021/01/04 04:26:20;;;;;;;16.93;10.53;;;3.50;93.00;;;;;;4397143;32;20241;-64
2021/01/04 04:28:46;;;;;;;16.60;9.87;;;3.40;93.10;;;;;;4403846;32;20185;-65
2021/01/04 04:31:20;;;;;;;20.43;10.73;;;3.50;93.00;;;;;;4400507;32;20179;-65
2021/01/04 04:33:46;;;;;;;19.20;11.07;;;3.50;93.10;;;;;;4396870;32;20617;-64
2021/01/04 04:36:21;;;;;;;14.27;10.53;;;3.50;93.20;;;;;;4402465;32;20189;-64
2021/01/04 04:38:48;;;;;;;14.90;10.27;;;3.50;93.10;;;;;;4404614;32;20533;-63
2021/01/04 04:41:24;;;;;;;15.07;9.77;;;3.50;92.90;;;;;;4403257;32;20212;-64
2021/01/04 04:43:52;;;;;;;11.93;9.37;;;3.50;93.20;;;;;;4401062;32;20290;-65
2021/01/04 04:46:43;;;;;;;14.47;9.90;;;3.50;92.80;;;;;;4396286;32;20272;-65
2021/01/04 04:49:19;;;;;;;13.00;9.40;;;3.50;92.90;;;;;;4401559;32;20210;-64
2021/01/04 04:52:21;;;;;;;12.97;9.30;;;3.40;92.80;;;;;;4404001;32;20696;-68
2021/01/04 04:54:59;;;;;;;14.87;10.33;;;3.40;92.80;;;;;;4354911;32;20168;-63
2021/01/04 04:57:52;;;;;;;15.97;10.67;;;3.40;92.90;;;;;;4355611;32;20160;-64
2021/01/04 05:00:32;;;;;;;14.93;9.33;;;3.40;92.80;;;;;;4357542;32;20578;-65
2021/01/04 05:03:20;;;;;;;15.50;9.43;;;3.40;92.80;;;;;;4354486;32;20234;-63
2021/01/04 05:06:05;;;;;;;13.17;9.13;;;3.40;92.80;;;;;;4345610;33;20161;-65
2021/01/04 05:08:46;;;;;;;15.27;10.13;;;3.40;92.90;;;;;;4342094;33;20226;-64
2021/01/04 05:11:14;;;;;;;16.10;10.47;;;3.40;92.80;;;;;;4348559;32;20161;-63
2021/01/04 05:13:46;;;;;;;13.57;8.93;;;3.40;92.90;;;;;;4351614;33;20225;-65
2021/01/04 05:16:17;;;;;;;19.33;10.33;;;3.50;92.60;;;;;;4348346;33;20443;-64
2021/01/04 05:19:13;;;;;;;13.83;9.87;;;3.40;92.70;;;;;;4356645;32;20216;-62
2021/01/04 05:22:20;;;;;;;15.13;10.17;;;3.40;92.40;;;;;;4349388;33;20192;-64
2021/01/04 05:25:21;;;;;;;15.37;9.93;;;3.40;92.50;;;;;;4350268;33;20184;-62
2021/01/04 05:28:14;;;;;;;13.63;9.63;;;3.50;92.60;;;;;;4312700;33;20567;-64
2021/01/04 05:31:03;;;;;;;15.47;9.80;;;3.40;92.60;;;;;;4324831;32;20250;-65
2021/01/04 05:34:04;;;;;;;13.10;8.80;;;3.50;92.50;;;;;;4326857;33;20365;-63
2021/01/04 05:36:50;;;;;;;13.20;9.73;;;3.40;92.30;;;;;;4298692;33;20677;-62
2021/01/04 05:39:25;;;;;;;14.13;9.93;;;3.40;92.50;;;;;;4297820;33;20173;-62
2021/01/04 05:42:18;;;;;;;12.37;9.27;;;3.40;92.90;;;;;;4295611;33;20602;-62
2021/01/04 05:45:03;;;;;;;19.47;12.23;;;3.40;92.60;;;;;;4298144;33;20166;-63
2021/01/04 05:47:39;;;;;;;16.73;10.23;;;3.40;92.70;;;;;;4297225;33;20332;-65
2021/01/04 05:50:17;;;;;;;15.57;9.47;;;3.40;92.70;;;;;;4298252;33;20251;-63
2021/01/04 05:52:45;;;;;;;15.30;10.70;;;3.40;92.80;;;;;;4294713;33;20185;-63
2021/01/04 05:55:14;;;;;;;15.87;9.70;;;3.40;92.70;;;;;;4296199;33;20235;-63
2021/01/04 05:57:45;;;;;;;17.00;9.77;;;3.40;92.70;;;;;;4296910;33;20257;-62
2021/01/04 06:00:13;;;;;;;14.80;9.73;;;3.40;92.70;;;;;;4299667;33;20220;-63
2021/01/04 06:02:39;;;;;;;14.50;9.50;;;3.40;92.80;;;;;;4303610;33;20177;-63
2021/01/04 06:07:57;;;;;;;15.10;9.93;;;3.50;92.80;;;;;;4343448;33;20634;-62
2021/01/04 06:10:35;;;;;;;16.17;9.53;;;3.50;92.70;;;;;;4354119;32;20636;-63
2021/01/04 06:13:05;;;;;;;16.60;10.43;;;3.50;92.80;;;;;;4381560;32;20257;-62
2021/01/04 06:15:35;;;;;;;18.33;10.50;;;3.40;92.90;;;;;;4405328;32;20172;-63
2021/01/04 06:18:04;;;;;;;17.90;9.90;;;3.50;92.80;;;;;;4400600;32;20212;-66
2021/01/04 06:20:57;;;;;;;17.23;9.93;;;3.50;92.70;;;;;;4406293;32;20340;-63
2021/01/04 06:23:33;;;;;;;15.93;10.63;;;3.60;92.80;;;;;;4397756;32;20219;-66
2021/01/04 06:26:12;;;;;;;16.83;9.57;;;3.50;92.60;;;;;;4404141;32;20155;-62
2021/01/04 06:29:01;;;;;;;17.27;9.43;;;3.50;92.70;;;;;;4397266;32;20157;-65
2021/01/04 06:31:38;;;;;;;17.70;10.07;;;3.50;92.70;;;;;;4394030;32;20615;-63
2021/01/04 06:34:20;;;;;;;14.70;9.70;;;3.50;92.70;;;;;;4400895;32;20206;-63
2021/01/04 06:37:01;;;;;;;21.10;11.23;;;3.40;92.80;;;;;;4394639;32;20302;-64
2021/01/04 06:39:35;;;;;;;14.60;9.77;;;3.50;92.70;;;;;;4403799;32;20279;-63
2021/01/04 06:42:14;;;;;;;14.37;10.03;;;3.50;92.70;;;;;;4401584;32;20585;-63
2021/01/04 06:44:43;;;;;;;15.80;8.87;;;3.50;92.70;;;;;;4403382;32;20190;-64
2021/01/04 06:47:43;;;;;;;15.27;9.60;;;3.50;92.60;;;;;;4398699;32;20604;-64
2021/01/04 06:50:19;;;;;;;16.30;9.33;;;3.40;92.60;;;;;;4401261;32;20183;-62
2021/01/04 06:53:30;;;;;;;16.20;10.43;;;3.50;92.70;;;;;;4402153;32;20174;-62
2021/01/04 06:56:43;;;;;;;13.07;8.70;;;3.40;92.90;;;;;;4405357;32;20620;-63
2021/01/04 06:59:33;;;;;;;14.53;9.30;;;3.50;92.80;;;;;;4364356;32;20172;-62
2021/01/04 07:02:37;;;;;;;19.40;10.30;;;3.40;92.80;;;;;;4363580;32;20176;-64
2021/01/04 07:05:40;;;;;;;16.97;9.27;;;3.50;92.80;;;;;;4372013;32;20215;-63
2021/01/04 07:08:41;;;;;;;15.23;10.13;;;3.40;92.80;;;;;;4369803;32;20211;-62
2021/01/04 07:11:22;;;;;;;17.63;10.87;;;3.40;92.90;;;;;;4369809;32;20297;-62
2021/01/04 07:14:15;;;;;;;16.50;10.23;;;3.40;92.90;;;;;;4367587;32;20199;-64
2021/01/04 07:16:55;;;;;;;18.07;10.47;;;3.40;92.90;;;;;;3707900;32;21922623;-62
2021/01/04 07:19:47;;;;;;;15.97;9.83;;;3.40;92.90;;;;;;4367182;32;20827;-64
2021/01/04 07:22:26;;;;;;;12.93;9.90;;;3.40;93.00;;;;;;4368173;32;20232;-62
2021/01/04 07:25:08;;;;;;;14.63;9.83;;;3.50;93.10;;;;;;4374117;32;20184;-63
2021/01/04 07:27:59;;;;;;;15.00;9.50;;;3.40;92.80;;;;;;4367399;32;20265;-64
2021/01/04 07:30:56;;;;;;;19.77;10.60;;;3.50;92.90;;;;;;4390300;32;20184;-68
2021/01/04 07:33:31;;;;;;;13.70;9.10;;;3.50;93.00;;;;;;4397526;32;20195;-63
2021/01/04 07:36:15;;;;;;;15.43;9.33;;;3.50;93.00;;;;;;4401588;32;20203;-63
2021/01/04 07:39:02;;;;;;;15.53;10.27;;;3.50;92.90;;;;;;4403022;32;20200;-63
2021/01/04 07:41:59;;;;;;;15.07;9.07;;;3.50;92.90;;;;;;4402161;32;20160;-64
2021/01/04 07:44:43;;;;;;;15.10;9.60;;;3.50;92.80;;;;;;4403434;32;20236;-63
2021/01/04 07:47:44;;;;;;;13.80;10.17;;;3.50;92.80;;;;;;4399522;32;20160;-63
2021/01/04 07:50:46;;;;;;;14.70;9.30;;;3.50;92.80;;;;;;4397710;32;20256;-63
2021/01/04 07:53:48;;;;;;;12.90;9.40;;;3.50;92.70;;;;;;4403720;32;20724;-63
2021/01/04 08:30:16;;;;;;;14.33;9.30;;;3.70;92.70;;;;;;4140207;34;20217;-64
2021/01/04 08:32:51;;;;;;;18.00;9.13;;;3.70;92.50;;;;;;4141379;34;20173;-62
2021/01/04 08:38:31;;;;;;;14.30;9.87;;;3.70;92.50;;;;;;4194867;34;20230;-64
2021/01/04 08:41:01;;;;;;;14.97;9.70;;;3.70;92.30;;;;;;4252933;33;20171;-64
2021/01/04 08:43:38;;;;;;;14.80;9.40;;;3.70;92.50;;;;;;4271693;33;20312;-63
2021/01/04 08:46:31;;;;;;;17.03;9.53;;;3.70;92.30;;;;;;4309584;33;20680;-66
2021/01/04 08:49:26;;;;;;;15.77;9.73;;;3.70;92.50;;;;;;4304269;33;20212;-66
2021/01/04 08:51:56;;;;;;;13.80;8.60;;;3.80;92.50;;;;;;4324224;33;20173;-65
2021/01/04 08:54:41;;;;;;;15.17;10.57;;;3.80;92.50;;;;;;4323483;33;20698;-66
2021/01/04 08:57:28;;;;;;;15.80;10.13;;;3.80;92.20;;;;;;4320695;33;20657;-63
2021/01/04 09:00:10;;;;;;;15.33;9.23;;;3.80;92.30;;;;;;4324470;33;20169;-64
2021/01/04 09:02:44;;;;;;;15.53;9.73;;;3.90;92.20;;;;;;4326157;33;20609;-65
2021/01/04 09:05:16;;;;;;;15.03;10.37;;;3.80;92.10;;;;;;4357716;32;20205;-63
2021/01/04 09:08:03;;;;;;;16.73;9.57;;;3.90;92.20;;;;;;4381677;32;20320;-63
2021/01/04 09:10:48;;;;;;;15.57;9.90;;;3.90;92.10;;;;;;4379587;32;20231;-63
2021/01/04 09:13:32;;;;;;;15.73;10.37;;;3.90;92.10;;;;;;4380236;32;20655;-63
2021/01/04 09:16:20;;;;;;;16.07;9.93;;;3.90;92.00;;;;;;4382239;32;20667;-63
2021/01/04 09:18:54;;;;;;;13.40;9.03;;;4.00;92.00;;;;;;4382976;32;20243;-63
2021/01/04 09:21:39;;;;;;;13.50;9.23;;;4.00;91.80;;;;;;4383049;32;20321;-64
2021/01/04 09:27:05;;;;;;;13.10;8.87;;;4.00;91.70;;;;;;4397966;32;20344;-63
2021/01/04 09:29:38;;;;;;;12.10;8.80;;;4.00;91.70;;;;;;4399482;32;20605;-63
2021/01/04 09:32:19;;;;;;;11.17;8.63;;;4.00;91.50;;;;;;4396158;32;20268;-64
2021/01/04 09:34:56;;;;;;;10.70;8.60;;;4.00;91.30;;;;;;4399242;32;20234;-65
2021/01/04 09:37:30;;;;;;;15.23;8.17;;;4.10;91.20;;;;;;4399101;32;21639;-64
2021/01/04 09:40:10;;;;;;;11.67;7.87;;;4.00;91.00;;;;;;4400221;32;20211;-62
2021/01/04 09:42:41;;;;;;;12.20;9.03;;;4.00;91.40;;;;;;4397626;32;20612;-63
2021/01/04 09:45:32;;;;;;;14.90;8.30;;;4.10;91.20;;;;;;4397085;32;20234;-68
2021/01/04 09:48:41;;;;;;;10.00;7.33;;;4.10;91.20;;;;;;4400153;32;20211;-66
2021/01/04 09:51:40;;;;;;;10.30;7.50;;;4.00;91.00;;;;;;4400173;32;20203;-68
2021/01/04 09:54:18;;;;;;;12.77;8.57;;;4.00;91.20;;;;;;4399074;32;20191;-62
2021/01/04 09:56:59;;;;;;;12.50;7.40;;;3.90;91.20;;;;;;4398261;32;20219;-68
2021/01/04 09:59:26;;;;;;;9.90;7.40;;;4.00;91.20;;;;;;4400211;32;20211;-65
2021/01/04 10:02:20;;;;;;;11.20;7.80;;;4.00;90.90;;;;;;4400327;32;20601;-66
2021/01/04 10:04:46;;;;;;;11.70;7.83;;;3.90;91.30;;;;;;4399540;32;20175;-69
2021/01/04 10:07:31;;;;;;;11.57;7.10;;;4.00;91.10;;;;;;4401136;32;20197;-68
2021/01/04 10:09:57;;;;;;;9.00;7.00;;;4.00;91.20;;;;;;4400130;32;20184;-66
2021/01/04 10:12:42;;;;;;;9.70;7.80;;;4.00;91.20;;;;;;4399423;32;20218;-64
2021/01/04 10:15:23;;;;;;;12.33;7.10;;;4.00;91.10;;;;;;4399196;32;20183;-66
2021/01/04 10:18:01;;;;;;;10.87;6.90;;;4.10;91.30;;;;;;4399495;32;20997;-63
2021/01/04 10:20:48;;;;;;;14.00;7.10;;;4.10;90.60;;;;;;4400069;32;20376;-68
2021/01/04 10:23:22;;;;;;;14.03;7.43;;;4.00;90.90;;;;;;4399631;32;20171;-63
2021/01/04 10:25:56;;;;;;;10.07;7.23;;;4.00;91.00;;;;;;4399918;32;20214;-66
2021/01/04 10:28:34;;;;;;;9.47;6.63;;;4.00;90.90;;;;;;4398860;32;20190;-63
2021/01/04 10:31:23;;;;;;;12.47;7.03;;;4.10;91.00;;;;;;4399614;32;20194;-64
2021/01/04 10:33:52;;;;;;;11.80;6.90;;;4.10;91.20;;;;;;4398395;32;20188;-63
2021/01/04 10:39:21;;;;;;;8.50;6.60;;;4.10;90.90;;;;;;4365968;32;20629;-65
2021/01/04 10:42:05;;;;;;;9.20;6.83;;;4.10;90.70;;;;;;4368641;32;20179;-68
2021/01/04 10:44:35;;;;;;;10.23;6.83;;;4.00;90.90;;;;;;4366800;32;20198;-65
2021/01/04 10:47:19;;;;;;;11.37;7.50;;;4.00;90.70;;;;;;4365856;32;20216;-67
2021/01/04 10:50:15;;;;;;;8.80;6.63;;;3.90;90.70;;;;;;4364699;32;20231;-64
2021/01/04 10:53:00;;;;;;;12.17;6.83;;;4.00;90.80;;;;;;4366323;32;20160;-64
2021/01/04 10:55:39;;;;;;;10.53;7.20;;;4.00;90.90;;;;;;4367804;32;20279;-62
2021/01/04 10:58:29;;;;;;;11.13;7.63;;;4.00;91.00;;;;;;4369760;32;20184;-67
2021/01/04 11:01:13;;;;;;;10.37;6.73;;;4.00;90.90;;;;;;4369914;32;20257;-64
2021/01/04 11:04:00;;;;;;;;;;;;;;;;;;;;;
2021/01/04 11:06:37;;;;;;;8.33;6.13;;;3.90;91.00;;;;;;4369474;32;20199;-66
2021/01/04 11:09:12;;;;;;;11.17;6.63;;;3.90;91.00;;;;;;4365575;32;20186;-66
2021/01/04 11:11:45;;;;;;;10.10;6.47;;;3.90;91.20;;;;;;4367798;32;20295;-63
2021/01/04 11:14:18;;;;;;;9.17;6.40;;;3.90;90.90;;;;;;4369193;32;20212;-64
2021/01/04 11:16:59;;;;;;;13.63;7.63;;;3.90;90.80;;;;;;4390368;32;20207;-63
2021/01/04 11:19:32;;;;;;;10.37;6.53;;;3.90;90.90;;;;;;4402473;32;20491;-65
2021/01/04 11:22:09;;;;;;;8.40;6.23;;;3.90;90.90;;;;;;4404459;32;20879;-66
2021/01/04 11:24:44;;;;;;;9.13;6.40;;;4.00;91.00;;;;;;4398127;32;20226;-66
2021/01/04 11:27:12;;;;;;;9.33;6.27;;;4.00;90.80;;;;;;4392210;32;20210;-64
2021/01/04 11:29:42;;;;;;;10.13;6.33;;;4.00;91.00;;;;;;4397222;32;20163;-64
2021/01/04 11:32:15;;;;;;;8.20;6.07;;;3.90;90.60;;;;;;4400091;32;20199;-63
2021/01/04 11:34:46;;;;;;;9.27;7.07;;;3.80;90.60;;;;;;4401086;32;20179;-64
2021/01/04 11:37:15;;;;;;;9.20;6.30;;;3.80;90.80;;;;;;4399961;32;20186;-62
2021/01/04 11:39:42;;;;;;;8.30;5.87;;;3.80;90.70;;;;;;4397025;32;20234;-63
2021/01/04 11:42:10;;;;;;;9.13;6.00;;;3.70;90.20;;;;;;4399078;32;20167;-64
2021/01/04 11:44:37;;;;;;;11.50;6.63;;;3.70;90.50;;;;;;4401178;32;20163;-65
2021/01/04 11:47:06;;;;;;;10.60;5.90;;;3.70;90.40;;;;;;4399472;32;20287;-63
2021/01/04 11:49:33;;;;;;;6.73;5.63;;;3.60;90.40;;;;;;4399488;32;20186;-65
2021/01/04 11:51:59;;;;;;;9.40;6.60;;;3.60;90.80;;;;;;4399591;32;20238;-67
2021/01/04 11:54:29;;;;;;;9.40;6.07;;;3.60;90.50;;;;;;4400871;32;20262;-66
2021/01/04 11:56:55;;;;;;;9.77;4.93;;;3.60;90.60;;;;;;4398817;32;21878;-68
2021/01/04 11:59:25;;;;;;;10.07;6.50;;;3.70;90.40;;;;;;4399730;32;20254;-64
2021/01/04 12:01:52;;;;;;;10.33;6.63;;;3.60;90.40;;;;;;4397524;32;20249;-65
2021/01/04 12:04:21;;;;;;;9.13;6.63;;;3.60;90.40;;;;;;4400772;32;20247;-65
2021/01/04 12:06:50;;;;;;;7.00;5.70;;;3.60;90.30;;;;;;4400568;32;20159;-64
2021/01/04 12:09:17;;;;;;;16.00;11.00;;;3.60;90.30;;;;;;4401873;32;20161;-63
2021/01/04 12:11:52;;;;;;;9.40;6.60;;;3.60;90.40;;;;;;4400331;32;20160;-64
2021/01/04 12:14:22;;;;;;;9.83;8.17;;;3.60;90.30;;;;;;4400764;32;20210;-65
2021/01/04 12:17:20;;;;;;;9.87;8.60;;;3.60;90.20;;;;;;4400765;32;20208;-67
2021/01/04 12:20:02;;;;;;;9.80;5.20;;;3.60;90.40;;;;;;4400677;32;20202;-64
2021/01/04 12:22:42;;;;;;;7.40;5.67;;;3.60;90.20;;;;;;4403045;32;20189;-64
2021/01/04 12:25:18;;;;;;;8.83;6.47;;;3.60;89.90;;;;;;4396597;32;20252;-62
2021/01/04 12:27:54;;;;;;;8.77;4.80;;;3.50;90.00;;;;;;4392039;32;20177;-65
2021/01/04 12:30:21;;;;;;;7.53;6.10;;;3.50;90.10;;;;;;4395903;32;21815;-66
2021/01/04 12:32:54;;;;;;;6.30;5.17;;;3.50;90.10;;;;;;4400257;32;20736;-63
2021/01/04 12:35:23;;;;;;;6.97;5.77;;;3.50;89.80;;;;;;4398447;32;20584;-66
2021/01/04 12:37:50;;;;;;;8.83;5.23;;;3.50;90.00;;;;;;4399200;32;20231;-66
2021/01/04 12:40:18;;;;;;;7.50;5.40;;;3.40;90.00;;;;;;4401295;32;20202;-66
2021/01/04 12:42:45;;;;;;;6.93;4.80;;;3.50;90.00;;;;;;4399923;32;20163;-65
2021/01/04 12:45:17;;;;;;;4.80;4.23;;;3.40;89.80;;;;;;4400517;32;20284;-64
2021/01/04 12:47:45;;;;;;;8.17;4.90;;;3.40;90.00;;;;;;4396517;32;20573;-64
2021/01/04 12:50:20;;;;;;;7.97;4.90;;;3.40;89.60;;;;;;4398644;32;20209;-66
2021/01/04 12:52:47;;;;;;;5.50;4.57;;;3.40;89.20;;;;;;4400390;32;20155;-65
2021/01/04 12:55:17;;;;;;;7.73;4.47;;;3.40;89.20;;;;;;4399483;32;20350;-64
2021/01/04 12:57:48;;;;;;;5.70;4.30;;;3.40;89.40;;;;;;4397506;32;20592;-66
2021/01/04 13:00:22;;;;;;;7.90;3.90;;;3.40;89.40;;;;;;4397999;32;20264;-66
2021/01/04 13:02:50;;;;;;;6.87;4.20;;;3.30;89.70;;;;;;4403756;32;20156;-64
2021/01/04 13:05:36;;;;;;;5.20;4.20;;;3.30;89.10;;;;;;4401315;32;20160;-64
2021/01/04 13:08:14;;;;;;;8.43;4.17;;;3.30;89.00;;;;;;4402374;32;20156;-64
2021/01/04 13:10:44;;;;;;;6.83;4.23;;;3.30;89.20;;;;;;4401838;32;20601;-65
2021/01/04 13:13:36;;;;;;;7.73;4.37;;;3.30;89.10;;;;;;4399776;32;20249;-64
2021/01/04 13:16:13;;;;;;;6.70;4.10;;;3.30;89.30;;;;;;4399312;32;20293;-65
2021/01/04 13:18:41;;;;;;;6.50;4.17;;;3.30;89.20;;;;;;4400316;32;20587;-64
2021/01/04 13:21:17;;;;;;;8.00;4.07;;;3.30;89.20;;;;;;4395582;32;20237;-67
2021/01/04 13:23:47;;;;;;;5.47;4.20;;;3.40;88.80;;;;;;4398628;32;20211;-67
2021/01/04 13:26:18;;;;;;;5.53;3.90;;;3.40;89.30;;;;;;4399129;32;20144;-64
2021/01/04 13:28:54;;;;;;;5.37;4.10;;;3.40;89.00;;;;;;4397333;32;20313;-65
2021/01/04 13:31:29;;;;;;;7.53;4.30;;;3.40;88.80;;;;;;4400623;32;20189;-63
2021/01/04 13:33:59;;;;;;;6.17;4.10;;;3.40;89.10;;;;;;4398878;32;20232;-62
2021/01/04 13:36:37;;;;;;;5.00;4.13;;;3.40;89.80;;;;;;4400555;32;20179;-65
2021/01/04 13:39:13;;;;;;;12.97;4.40;;;3.50;89.40;;;;;;4398334;32;20210;-63
2021/01/04 13:41:40;;;;;;;9.03;6.77;;;3.50;88.50;;;;;;4398230;32;20178;-66
2021/01/04 13:44:07;;;;;;;13.30;7.27;;;3.50;88.80;;;;;;4399090;32;20219;-64
2021/01/04 13:46:36;;;;;;;7.13;4.67;;;3.50;89.20;;;;;;4394865;32;20183;-66
2021/01/04 13:49:03;;;;;;;5.27;4.30;;;3.50;88.30;;;;;;4401995;32;20225;-65
2021/01/04 13:51:35;;;;;;;6.13;4.07;;;3.50;88.20;;;;;;4400455;32;20180;-66
2021/01/04 13:54:05;;;;;;;4.20;3.80;;;3.50;88.10;;;;;;4402033;32;20233;-65
2021/01/04 13:56:31;;;;;;;9.67;4.90;;;3.40;88.20;;;;;;4400830;32;20259;-64
2021/01/04 13:59:04;;;;;;;4.43;3.97;;;3.40;88.30;;;;;;4401126;32;20247;-64
2021/01/04 14:01:34;;;;;;;5.23;3.87;;;3.30;87.90;;;;;;4399064;32;20151;-64
2021/01/04 14:04:01;;;;;;;6.30;3.73;;;3.40;88.50;;;;;;4399968;32;20174;-66
2021/01/04 14:06:27;;;;;;;7.17;5.17;;;3.40;88.40;;;;;;4402170;32;20297;-65
2021/01/04 14:08:59;;;;;;;8.77;4.67;;;3.40;88.60;;;;;;4403731;32;20481;-64
2021/01/04 14:11:29;;;;;;;5.30;3.77;;;3.40;88.50;;;;;;4401311;32;20156;-63
2021/01/04 14:14:04;;;;;;;6.97;4.17;;;3.40;88.00;;;;;;4400757;32;20540;-65
2021/01/04 14:16:31;;;;;;;6.30;3.83;;;3.40;87.80;;;;;;4400196;32;20186;-66
2021/01/04 14:19:04;;;;;;;6.40;4.97;;;3.40;87.50;;;;;;4402581;32;20164;-64
2021/01/04 14:21:34;;;;;;;5.23;3.67;;;3.40;87.80;;;;;;4400670;32;20275;-64
2021/01/04 14:24:03;;;;;;;4.10;3.43;;;3.40;88.10;;;;;;4397908;32;20203;-63
2021/01/04 14:26:32;;;;;;;6.17;4.67;;;3.40;87.70;;;;;;4400196;32;20167;-66
2021/01/04 14:28:58;;;;;;;5.80;4.20;;;3.40;87.70;;;;;;4406416;32;20159;-66